sensor_id;sensor_type;location;lat;lon;timestamp;pressure;altitude;pressure_sealevel;temperature;humidity
29385;BME280;16367;48.736;9.218;2024-01-30T00:02:02;-23362.72;;;6.14;81.16
29385;BME280;16367;48.736;9.218;2024-01-30T00:04:06;-23361.94;;;6.12;80.99
29385;BME280;16367;48.736;9.218;2024-01-30T00:06:08;-23363.19;;;6.16;80.86
29385;BME280;16367;48.736;9.218;2024-01-30T00:08:11;-23362.25;;;6.13;81.14
29385;BME280;16367;48.736;9.218;2024-01-30T00:10:14;-23362.41;;;6.13;80.82
29385;BME280;16367;48.736;9.218;2024-01-30T00:12:17;-23361.75;;;6.11;80.80
29385;BME280;16367;48.736;9.218;2024-01-30T00:14:20;-23361.13;;;6.09;80.85
29385;BME280;16367;48.736;9.218;2024-01-30T00:16:24;-23360.50;;;6.07;81.05
29385;BME280;16367;48.736;9.218;2024-01-30T00:18:27;-23361.94;;;6.12;81.24
29385;BME280;16367;48.736;9.218;2024-01-30T00:20:31;-23358.09;;;5.99;81.53
29385;BME280;16367;48.736;9.218;2024-01-30T00:22:34;-23357.78;;;5.98;81.94
29385;BME280;16367;48.736;9.218;2024-01-30T00:24:37;-23355.88;;;5.92;82.14
29385;BME280;16367;48.736;9.218;2024-01-30T00:26:39;-23354.44;;;5.88;82.61
29385;BME280;16367;48.736;9.218;2024-01-30T00:28:43;-23349.81;;;5.73;83.68
29385;BME280;16367;48.736;9.218;2024-01-30T00:30:46;-23350.78;;;5.76;83.91
29385;BME280;16367;48.736;9.218;2024-01-30T00:32:49;-23349.03;;;5.71;83.93
29385;BME280;16367;48.736;9.218;2024-01-30T00:34:52;-23346.50;;;5.63;84.80
29385;BME280;16367;48.736;9.218;2024-01-30T00:36:56;-23346.66;;;5.63;84.65
29385;BME280;16367;48.736;9.218;2024-01-30T00:38:59;-23345.22;;;5.59;85.02
29385;BME280;16367;48.736;9.218;2024-01-30T00:41:02;-23346.31;;;5.62;84.83
29385;BME280;16367;48.736;9.218;2024-01-30T00:43:04;-23348.41;;;5.69;84.78
29385;BME280;16367;48.736;9.218;2024-01-30T00:45:11;-23345.22;;;5.59;85.06
29385;BME280;16367;48.736;9.218;2024-01-30T00:47:13;-23343.31;;;5.53;86.02
29385;BME280;16367;48.736;9.218;2024-01-30T00:49:16;-23346.00;;;5.61;86.11
29385;BME280;16367;48.736;9.218;2024-01-30T00:51:19;-23350.00;;;5.74;85.54
29385;BME280;16367;48.736;9.218;2024-01-30T00:53:23;-23348.88;;;5.70;85.52
29385;BME280;16367;48.736;9.218;2024-01-30T00:55:26;-23343.16;;;5.52;86.48
29385;BME280;16367;48.736;9.218;2024-01-30T00:57:28;-23344.25;;;5.56;86.85
29385;BME280;16367;48.736;9.218;2024-01-30T00:59:31;-23339.81;;;5.42;87.50
29385;BME280;16367;48.736;9.218;2024-01-30T01:01:34;-23344.41;;;5.56;87.19
29385;BME280;16367;48.736;9.218;2024-01-30T01:03:36;-23338.38;;;5.37;87.88
29385;BME280;16367;48.736;9.218;2024-01-30T01:05:40;-23334.06;;;5.23;88.46
29385;BME280;16367;48.736;9.218;2024-01-30T01:07:41;-23339.16;;;5.40;88.46
29385;BME280;16367;48.736;9.218;2024-01-30T01:09:46;-23332.97;;;5.20;89.36
29385;BME280;16367;48.736;9.218;2024-01-30T01:11:49;-23337.75;;;5.35;89.14
29385;BME280;16367;48.736;9.218;2024-01-30T01:13:52;-23334.72;;;5.25;89.16
29385;BME280;16367;48.736;9.218;2024-01-30T01:15:54;-23335.66;;;5.28;89.29
29385;BME280;16367;48.736;9.218;2024-01-30T01:17:57;-23336.78;;;5.32;89.26
29385;BME280;16367;48.736;9.218;2024-01-30T01:20:01;-23335.03;;;5.26;89.34
29385;BME280;16367;48.736;9.218;2024-01-30T01:22:03;-23332.00;;;5.17;89.78
29385;BME280;16367;48.736;9.218;2024-01-30T01:24:06;-23332.47;;;5.18;89.78
29385;BME280;16367;48.736;9.218;2024-01-30T01:26:10;-23334.06;;;5.23;89.55
29385;BME280;16367;48.736;9.218;2024-01-30T01:28:13;-23333.75;;;5.22;89.36
29385;BME280;16367;48.736;9.218;2024-01-30T01:30:15;-23333.13;;;5.20;89.57
29385;BME280;16367;48.736;9.218;2024-01-30T01:32:22;-23332.81;;;5.19;89.88
29385;BME280;16367;48.736;9.218;2024-01-30T01:34:25;-23332.66;;;5.19;89.70
29385;BME280;16367;48.736;9.218;2024-01-30T01:36:31;-23329.31;;;5.08;89.63
29385;BME280;16367;48.736;9.218;2024-01-30T01:38:34;-23325.47;;;4.96;89.80
29385;BME280;16367;48.736;9.218;2024-01-30T01:40:37;-23322.47;;;4.87;91.39
29385;BME280;16367;48.736;9.218;2024-01-30T01:42:42;-23324.22;;;4.92;90.99
29385;BME280;16367;48.736;9.218;2024-01-30T01:44:45;-23325.81;;;4.97;90.78
29385;BME280;16367;48.736;9.218;2024-01-30T01:46:48;-23320.72;;;4.81;91.57
29385;BME280;16367;48.736;9.218;2024-01-30T01:48:51;-23322.94;;;4.88;91.39
29385;BME280;16367;48.736;9.218;2024-01-30T01:50:54;-23320.38;;;4.80;91.22
29385;BME280;16367;48.736;9.218;2024-01-30T01:52:58;-23317.19;;;4.70;91.59
29385;BME280;16367;48.736;9.218;2024-01-30T01:55:00;-23321.03;;;4.82;91.50
29385;BME280;16367;48.736;9.218;2024-01-30T01:57:03;-23323.25;;;4.89;90.92
29385;BME280;16367;48.736;9.218;2024-01-30T01:59:08;-23317.03;;;4.70;91.74
29385;BME280;16367;48.736;9.218;2024-01-30T02:01:12;-23314.34;;;4.61;92.18
29385;BME280;16367;48.736;9.218;2024-01-30T02:03:16;-23311.78;;;4.53;92.81
29385;BME280;16367;48.736;9.218;2024-01-30T02:05:21;-23313.69;;;4.59;93.13
29385;BME280;16367;48.736;9.218;2024-01-30T02:07:24;-23315.13;;;4.64;92.22
29385;BME280;16367;48.736;9.218;2024-01-30T02:09:26;-23309.09;;;4.44;92.59
29385;BME280;16367;48.736;9.218;2024-01-30T02:11:29;-23302.06;;;4.22;94.01
29385;BME280;16367;48.736;9.218;2024-01-30T02:13:32;-23300.16;;;4.16;95.39
29385;BME280;16367;48.736;9.218;2024-01-30T02:15:36;-23292.69;;;3.93;95.49
29385;BME280;16367;48.736;9.218;2024-01-30T02:17:38;-23293.63;;;3.96;96.52
29385;BME280;16367;48.736;9.218;2024-01-30T02:19:40;-23289.19;;;3.82;96.80
29385;BME280;16367;48.736;9.218;2024-01-30T02:21:46;-23286.63;;;3.73;97.47
29385;BME280;16367;48.736;9.218;2024-01-30T02:23:49;-23290.59;;;3.86;98.56
29385;BME280;16367;48.736;9.218;2024-01-30T02:25:53;-23290.75;;;3.87;98.00
29385;BME280;16367;48.736;9.218;2024-01-30T02:27:54;-23281.53;;;3.57;99.50
29385;BME280;16367;48.736;9.218;2024-01-30T02:29:57;-23280.09;;;3.53;100.00
29385;BME280;16367;48.736;9.218;2024-01-30T02:32:00;-23280.72;;;3.55;100.00
29385;BME280;16367;48.736;9.218;2024-01-30T02:34:03;-23276.75;;;3.42;100.00
29385;BME280;16367;48.736;9.218;2024-01-30T02:36:06;-23273.06;;;3.31;100.00
29385;BME280;16367;48.736;9.218;2024-01-30T02:38:10;-23272.44;;;3.29;100.00
29385;BME280;16367;48.736;9.218;2024-01-30T02:40:13;-23277.38;;;3.44;100.00
29385;BME280;16367;48.736;9.218;2024-01-30T02:42:16;-23270.38;;;3.22;100.00
29385;BME280;16367;48.736;9.218;2024-01-30T02:44:19;-23272.13;;;3.28;100.00
29385;BME280;16367;48.736;9.218;2024-01-30T02:46:22;-23269.88;;;3.21;100.00
29385;BME280;16367;48.736;9.218;2024-01-30T02:48:25;-23267.00;;;3.12;100.00
29385;BME280;16367;48.736;9.218;2024-01-30T02:50:27;-23274.34;;;3.35;100.00
29385;BME280;16367;48.736;9.218;2024-01-30T02:52:30;-23272.91;;;3.30;100.00
29385;BME280;16367;48.736;9.218;2024-01-30T02:54:34;-23263.84;;;3.01;100.00
29385;BME280;16367;48.736;9.218;2024-01-30T02:56:37;-23263.84;;;3.01;100.00
29385;BME280;16367;48.736;9.218;2024-01-30T02:58:40;-23262.06;;;2.96;100.00
29385;BME280;16367;48.736;9.218;2024-01-30T03:00:43;-23263.03;;;2.99;100.00
29385;BME280;16367;48.736;9.218;2024-01-30T03:02:45;-23263.50;;;3.00;100.00
29385;BME280;16367;48.736;9.218;2024-01-30T03:04:48;-23264.63;;;3.04;100.00
29385;BME280;16367;48.736;9.218;2024-01-30T03:06:51;-23261.44;;;2.94;100.00
29385;BME280;16367;48.736;9.218;2024-01-30T03:08:54;-23264.31;;;3.03;100.00
29385;BME280;16367;48.736;9.218;2024-01-30T03:10:59;-23263.34;;;3.00;100.00
29385;BME280;16367;48.736;9.218;2024-01-30T03:13:01;-23264.94;;;3.05;100.00
29385;BME280;16367;48.736;9.218;2024-01-30T03:15:05;-23262.41;;;2.97;100.00
29385;BME280;16367;48.736;9.218;2024-01-30T03:17:08;-23262.72;;;2.98;100.00
29385;BME280;16367;48.736;9.218;2024-01-30T03:19:10;-23261.75;;;2.95;100.00
29385;BME280;16367;48.736;9.218;2024-01-30T03:21:13;-23266.88;;;3.11;100.00
29385;BME280;16367;48.736;9.218;2024-01-30T03:23:16;-23265.25;;;3.06;100.00
29385;BME280;16367;48.736;9.218;2024-01-30T03:25:19;-23263.03;;;2.99;100.00
29385;BME280;16367;48.736;9.218;2024-01-30T03:27:23;-23259.03;;;2.86;100.00
29385;BME280;16367;48.736;9.218;2024-01-30T03:29:26;-23259.03;;;2.86;100.00
29385;BME280;16367;48.736;9.218;2024-01-30T03:31:29;-23256.19;;;2.77;100.00
29385;BME280;16367;48.736;9.218;2024-01-30T03:33:32;-23253.16;;;2.68;100.00
29385;BME280;16367;48.736;9.218;2024-01-30T03:35:35;-23252.66;;;2.66;100.00
29385;BME280;16367;48.736;9.218;2024-01-30T03:37:38;-23249.00;;;2.55;100.00
29385;BME280;16367;48.736;9.218;2024-01-30T03:39:41;-23255.53;;;2.75;100.00
29385;BME280;16367;48.736;9.218;2024-01-30T03:41:44;-23249.97;;;2.58;100.00
29385;BME280;16367;48.736;9.218;2024-01-30T03:43:48;-23250.91;;;2.61;100.00
29385;BME280;16367;48.736;9.218;2024-01-30T03:45:51;-23247.56;;;2.50;100.00
29385;BME280;16367;48.736;9.218;2024-01-30T03:47:54;-23247.25;;;2.49;100.00
29385;BME280;16367;48.736;9.218;2024-01-30T03:49:57;-23248.69;;;2.54;100.00
29385;BME280;16367;48.736;9.218;2024-01-30T03:51:58;-23247.41;;;2.50;100.00
29385;BME280;16367;48.736;9.218;2024-01-30T03:54:01;-23247.09;;;2.49;100.00
29385;BME280;16367;48.736;9.218;2024-01-30T03:56:03;-23251.56;;;2.63;100.00
29385;BME280;16367;48.736;9.218;2024-01-30T03:58:06;-23249.00;;;2.55;100.00
29385;BME280;16367;48.736;9.218;2024-01-30T04:00:12;-23246.94;;;2.48;100.00
29385;BME280;16367;48.736;9.218;2024-01-30T04:02:15;-23247.25;;;2.49;100.00
29385;BME280;16367;48.736;9.218;2024-01-30T04:04:19;-23247.72;;;2.51;100.00
29385;BME280;16367;48.736;9.218;2024-01-30T04:06:22;-23246.44;;;2.47;100.00
29385;BME280;16367;48.736;9.218;2024-01-30T04:08:25;-23248.38;;;2.53;100.00
29385;BME280;16367;48.736;9.218;2024-01-30T04:10:28;-23248.38;;;2.53;100.00
29385;BME280;16367;48.736;9.218;2024-01-30T04:12:30;-23243.56;;;2.38;100.00
29385;BME280;16367;48.736;9.218;2024-01-30T04:14:33;-23244.22;;;2.40;100.00
29385;BME280;16367;48.736;9.218;2024-01-30T04:16:38;-23236.25;;;2.14;100.00
29385;BME280;16367;48.736;9.218;2024-01-30T04:18:41;-23235.91;;;2.13;100.00
29385;BME280;16367;48.736;9.218;2024-01-30T04:20:45;-23235.59;;;2.12;100.00
29385;BME280;16367;48.736;9.218;2024-01-30T04:22:47;-23236.09;;;2.14;100.00
29385;BME280;16367;48.736;9.218;2024-01-30T04:24:49;-23235.44;;;2.12;100.00
29385;BME280;16367;48.736;9.218;2024-01-30T04:26:52;-23236.25;;;2.14;100.00
29385;BME280;16367;48.736;9.218;2024-01-30T04:28:55;-23236.09;;;2.14;100.00
29385;BME280;16367;48.736;9.218;2024-01-30T04:30:57;-23235.91;;;2.13;100.00
29385;BME280;16367;48.736;9.218;2024-01-30T04:33:02;-23235.59;;;2.12;100.00
29385;BME280;16367;48.736;9.218;2024-01-30T04:35:05;-23234.16;;;2.08;100.00
29385;BME280;16367;48.736;9.218;2024-01-30T04:37:12;-23229.22;;;1.92;100.00
29385;BME280;16367;48.736;9.218;2024-01-30T04:39:15;-23226.03;;;1.82;100.00
29385;BME280;16367;48.736;9.218;2024-01-30T04:41:18;-23231.28;;;1.99;100.00
29385;BME280;16367;48.736;9.218;2024-01-30T04:43:21;-23235.28;;;2.11;100.00
29385;BME280;16367;48.736;9.218;2024-01-30T04:45:24;-23233.84;;;2.07;100.00
29385;BME280;16367;48.736;9.218;2024-01-30T04:47:26;-23231.78;;;2.00;100.00
29385;BME280;16367;48.736;9.218;2024-01-30T04:49:31;-23230.81;;;1.97;100.00
29385;BME280;16367;48.736;9.218;2024-01-30T04:51:33;-23235.59;;;2.12;100.00
29385;BME280;16367;48.736;9.218;2024-01-30T04:53:36;-23233.38;;;2.05;100.00
29385;BME280;16367;48.736;9.218;2024-01-30T04:55:41;-23233.53;;;2.06;100.00
29385;BME280;16367;48.736;9.218;2024-01-30T04:57:43;-23230.66;;;1.97;100.00
29385;BME280;16367;48.736;9.218;2024-01-30T04:59:45;-23227.31;;;1.86;100.00
29385;BME280;16367;48.736;9.218;2024-01-30T05:01:47;-23228.75;;;1.91;100.00
29385;BME280;16367;48.736;9.218;2024-01-30T05:03:50;-23228.59;;;1.90;100.00
29385;BME280;16367;48.736;9.218;2024-01-30T05:05:54;-23229.06;;;1.92;100.00
29385;BME280;16367;48.736;9.218;2024-01-30T05:07:57;-23227.00;;;1.85;100.00
29385;BME280;16367;48.736;9.218;2024-01-30T05:10:00;-23224.44;;;1.77;100.00
29385;BME280;16367;48.736;9.218;2024-01-30T05:12:06;-23222.50;;;1.71;100.00
29385;BME280;16367;48.736;9.218;2024-01-30T05:14:09;-23221.56;;;1.68;100.00
29385;BME280;16367;48.736;9.218;2024-01-30T05:16:13;-23223.16;;;1.73;100.00
29385;BME280;16367;48.736;9.218;2024-01-30T05:18:16;-23220.28;;;1.64;100.00
29385;BME280;16367;48.736;9.218;2024-01-30T05:20:19;-23222.84;;;1.72;100.00
29385;BME280;16367;48.736;9.218;2024-01-30T05:22:24;-23224.13;;;1.76;100.00
29385;BME280;16367;48.736;9.218;2024-01-30T05:24:26;-23223.16;;;1.73;100.00
29385;BME280;16367;48.736;9.218;2024-01-30T05:26:29;-23227.63;;;1.87;100.00
29385;BME280;16367;48.736;9.218;2024-01-30T05:28:32;-23221.09;;;1.67;100.00
29385;BME280;16367;48.736;9.218;2024-01-30T05:30:35;-23223.78;;;1.75;100.00
29385;BME280;16367;48.736;9.218;2024-01-30T05:32:38;-23224.91;;;1.79;100.00
29385;BME280;16367;48.736;9.218;2024-01-30T05:34:41;-23223.78;;;1.75;100.00
29385;BME280;16367;48.736;9.218;2024-01-30T05:36:43;-23223.00;;;1.73;100.00
29385;BME280;16367;48.736;9.218;2024-01-30T05:38:48;-23224.91;;;1.79;100.00
29385;BME280;16367;48.736;9.218;2024-01-30T05:40:51;-23223.94;;;1.76;100.00
29385;BME280;16367;48.736;9.218;2024-01-30T05:42:53;-23227.00;;;1.85;100.00
29385;BME280;16367;48.736;9.218;2024-01-30T05:44:56;-23226.66;;;1.84;100.00
29385;BME280;16367;48.736;9.218;2024-01-30T05:46:59;-23227.31;;;1.86;100.00
29385;BME280;16367;48.736;9.218;2024-01-30T05:49:02;-23226.19;;;1.83;100.00
29385;BME280;16367;48.736;9.218;2024-01-30T05:51:05;-23229.53;;;1.93;100.00
29385;BME280;16367;48.736;9.218;2024-01-30T05:53:09;-23230.19;;;1.95;100.00
29385;BME280;16367;48.736;9.218;2024-01-30T05:55:13;-23229.22;;;1.92;100.00
29385;BME280;16367;48.736;9.218;2024-01-30T05:57:16;-23232.41;;;2.02;100.00
29385;BME280;16367;48.736;9.218;2024-01-30T05:59:19;-23231.47;;;1.99;100.00
29385;BME280;16367;48.736;9.218;2024-01-30T06:01:22;-23231.28;;;1.99;100.00
29385;BME280;16367;48.736;9.218;2024-01-30T06:03:25;-23230.19;;;1.95;100.00
29385;BME280;16367;48.736;9.218;2024-01-30T06:05:28;-23227.31;;;1.86;100.00
29385;BME280;16367;48.736;9.218;2024-01-30T06:07:31;-23228.41;;;1.90;100.00
29385;BME280;16367;48.736;9.218;2024-01-30T06:09:37;-23224.59;;;1.78;100.00
29385;BME280;16367;48.736;9.218;2024-01-30T06:11:41;-23225.72;;;1.81;100.00
29385;BME280;16367;48.736;9.218;2024-01-30T06:13:44;-23228.75;;;1.91;100.00
29385;BME280;16367;48.736;9.218;2024-01-30T06:15:48;-23224.91;;;1.79;100.00
29385;BME280;16367;48.736;9.218;2024-01-30T06:17:51;-23223.47;;;1.74;100.00
29385;BME280;16367;48.736;9.218;2024-01-30T06:19:53;-23223.31;;;1.74;100.00
29385;BME280;16367;48.736;9.218;2024-01-30T06:21:56;-23224.28;;;1.77;100.00
29385;BME280;16367;48.736;9.218;2024-01-30T06:23:59;-23224.44;;;1.77;100.00
29385;BME280;16367;48.736;9.218;2024-01-30T06:26:02;-23223.47;;;1.74;100.00
29385;BME280;16367;48.736;9.218;2024-01-30T06:28:06;-23221.88;;;1.69;100.00
29385;BME280;16367;48.736;9.218;2024-01-30T06:30:10;-23220.59;;;1.65;100.00
29385;BME280;16367;48.736;9.218;2024-01-30T06:32:13;-23220.28;;;1.64;100.00
29385;BME280;16367;48.736;9.218;2024-01-30T06:34:15;-23223.78;;;1.75;100.00
29385;BME280;16367;48.736;9.218;2024-01-30T06:36:18;-23224.59;;;1.78;100.00
29385;BME280;16367;48.736;9.218;2024-01-30T06:38:21;-23224.59;;;1.78;100.00
29385;BME280;16367;48.736;9.218;2024-01-30T06:40:23;-23224.91;;;1.79;100.00
29385;BME280;16367;48.736;9.218;2024-01-30T06:42:26;-23227.63;;;1.87;100.00
29385;BME280;16367;48.736;9.218;2024-01-30T06:44:29;-23228.25;;;1.89;100.00
29385;BME280;16367;48.736;9.218;2024-01-30T06:46:35;-23228.91;;;1.91;100.00
29385;BME280;16367;48.736;9.218;2024-01-30T06:48:38;-23230.81;;;1.97;100.00
29385;BME280;16367;48.736;9.218;2024-01-30T06:50:42;-23232.56;;;2.03;100.00
29385;BME280;16367;48.736;9.218;2024-01-30T06:52:45;-23234.66;;;2.09;100.00
29385;BME280;16367;48.736;9.218;2024-01-30T06:54:47;-23234.81;;;2.10;100.00
29385;BME280;16367;48.736;9.218;2024-01-30T06:56:50;-23231.47;;;1.99;100.00
29385;BME280;16367;48.736;9.218;2024-01-30T06:58:53;-23231.47;;;1.99;100.00
29385;BME280;16367;48.736;9.218;2024-01-30T07:00:57;-23232.41;;;2.02;100.00
29385;BME280;16367;48.736;9.218;2024-01-30T07:03:00;-23230.81;;;1.97;100.00
29385;BME280;16367;48.736;9.218;2024-01-30T07:05:03;-23229.53;;;1.93;100.00
29385;BME280;16367;48.736;9.218;2024-01-30T07:07:06;-23228.09;;;1.89;100.00
29385;BME280;16367;48.736;9.218;2024-01-30T07:09:14;-23228.25;;;1.89;100.00
29385;BME280;16367;48.736;9.218;2024-01-30T07:11:18;-23231.13;;;1.98;100.00
29385;BME280;16367;48.736;9.218;2024-01-30T07:13:21;-23230.81;;;1.97;100.00
29385;BME280;16367;48.736;9.218;2024-01-30T07:15:24;-23234.47;;;2.09;100.00
29385;BME280;16367;48.736;9.218;2024-01-30T07:17:28;-23230.81;;;1.97;100.00
29385;BME280;16367;48.736;9.218;2024-01-30T07:19:31;-23230.03;;;1.95;100.00
29385;BME280;16367;48.736;9.218;2024-01-30T07:21:34;-23231.13;;;1.98;100.00
29385;BME280;16367;48.736;9.218;2024-01-30T07:23:36;-23228.09;;;1.89;100.00
29385;BME280;16367;48.736;9.218;2024-01-30T07:25:40;-23234.66;;;2.09;100.00
29385;BME280;16367;48.736;9.218;2024-01-30T07:27:43;-23235.28;;;2.11;100.00
29385;BME280;16367;48.736;9.218;2024-01-30T07:29:46;-23234.66;;;2.09;100.00
29385;BME280;16367;48.736;9.218;2024-01-30T07:31:49;-23234.81;;;2.10;100.00
29385;BME280;16367;48.736;9.218;2024-01-30T07:33:53;-23233.53;;;2.06;100.00
29385;BME280;16367;48.736;9.218;2024-01-30T07:35:56;-23234.97;;;2.10;100.00
29385;BME280;16367;48.736;9.218;2024-01-30T07:37:59;-23235.28;;;2.11;100.00
29385;BME280;16367;48.736;9.218;2024-01-30T07:40:02;-23233.69;;;2.06;100.00
29385;BME280;16367;48.736;9.218;2024-01-30T07:42:06;-23239.75;;;2.25;100.00
29385;BME280;16367;48.736;9.218;2024-01-30T07:44:09;-23238.78;;;2.22;100.00
29385;BME280;16367;48.736;9.218;2024-01-30T07:46:12;-23241.97;;;2.33;100.00
29385;BME280;16367;48.736;9.218;2024-01-30T07:48:14;-23239.28;;;2.24;100.00
29385;BME280;16367;48.736;9.218;2024-01-30T07:50:18;-23240.06;;;2.26;100.00
29385;BME280;16367;48.736;9.218;2024-01-30T07:52:21;-23237.84;;;2.19;100.00
29385;BME280;16367;48.736;9.218;2024-01-30T07:54:24;-23239.75;;;2.25;100.00
29385;BME280;16367;48.736;9.218;2024-01-30T07:56:26;-23240.72;;;2.28;100.00
29385;BME280;16367;48.736;9.218;2024-01-30T07:58:29;-23241.34;;;2.31;100.00
29385;BME280;16367;48.736;9.218;2024-01-30T08:00:31;-23248.38;;;2.53;100.00
29385;BME280;16367;48.736;9.218;2024-01-30T08:02:34;-23251.22;;;2.62;100.00
29385;BME280;16367;48.736;9.218;2024-01-30T08:04:37;-23258.25;;;2.84;100.00
29385;BME280;16367;48.736;9.218;2024-01-30T08:06:41;-23266.22;;;3.09;100.00
29385;BME280;16367;48.736;9.218;2024-01-30T08:08:45;-23272.44;;;3.29;100.00
29385;BME280;16367;48.736;9.218;2024-01-30T08:10:48;-23278.97;;;3.49;100.00
29385;BME280;16367;48.736;9.218;2024-01-30T08:12:51;-23279.28;;;3.50;100.00
29385;BME280;16367;48.736;9.218;2024-01-30T08:14:54;-23287.56;;;3.76;100.00
29385;BME280;16367;48.736;9.218;2024-01-30T08:16:56;-23294.28;;;3.98;100.00
29385;BME280;16367;48.736;9.218;2024-01-30T08:18:59;-23296.66;;;4.05;100.00
29385;BME280;16367;48.736;9.218;2024-01-30T08:21:03;-23303.50;;;4.27;100.00
29385;BME280;16367;48.736;9.218;2024-01-30T08:23:07;-23304.16;;;4.29;99.72
29385;BME280;16367;48.736;9.218;2024-01-30T08:25:10;-23308.59;;;4.43;98.00
29385;BME280;16367;48.736;9.218;2024-01-30T08:27:13;-23327.06;;;5.01;96.32
29385;BME280;16367;48.736;9.218;2024-01-30T08:29:16;-23334.06;;;5.23;94.46
29385;BME280;16367;48.736;9.218;2024-01-30T08:31:19;-23346.16;;;5.62;91.93
29385;BME280;16367;48.736;9.218;2024-01-30T08:33:22;-23333.28;;;5.21;91.56
29385;BME280;16367;48.736;9.218;2024-01-30T08:35:24;-23350.63;;;5.76;89.97
29385;BME280;16367;48.736;9.218;2024-01-30T08:37:27;-23370.66;;;6.39;87.02
29385;BME280;16367;48.736;9.218;2024-01-30T08:39:32;-23378.94;;;6.65;85.70
29385;BME280;16367;48.736;9.218;2024-01-30T08:41:34;-23386.56;;;6.90;83.20
29385;BME280;16367;48.736;9.218;2024-01-30T08:43:37;-23388.47;;;6.96;80.79
29385;BME280;16367;48.736;9.218;2024-01-30T08:45:39;-23391.81;;;7.06;80.52
29385;BME280;16367;48.736;9.218;2024-01-30T08:47:42;-23395.31;;;7.17;78.37
29385;BME280;16367;48.736;9.218;2024-01-30T08:49:45;-23410.25;;;7.65;78.35
29385;BME280;16367;48.736;9.218;2024-01-30T08:51:48;-23404.03;;;7.45;76.32
29385;BME280;16367;48.736;9.218;2024-01-30T08:53:51;-23417.06;;;7.86;74.94
29385;BME280;16367;48.736;9.218;2024-01-30T08:55:56;-23432.00;;;8.34;73.45
29385;BME280;16367;48.736;9.218;2024-01-30T08:58:00;-23428.50;;;8.22;70.71
29385;BME280;16367;48.736;9.218;2024-01-30T09:00:06;-23422.78;;;8.04;71.31
29385;BME280;16367;48.736;9.218;2024-01-30T09:02:10;-23417.38;;;7.87;72.10
29385;BME280;16367;48.736;9.218;2024-01-30T09:04:14;-23422.16;;;8.02;72.21
29385;BME280;16367;48.736;9.218;2024-01-30T09:06:17;-23418.81;;;7.92;71.98
29385;BME280;16367;48.736;9.218;2024-01-30T09:08:19;-23411.66;;;7.69;72.60
29385;BME280;16367;48.736;9.218;2024-01-30T09:10:22;-23410.06;;;7.64;73.15
29385;BME280;16367;48.736;9.218;2024-01-30T09:12:27;-23398.97;;;7.29;75.25
29385;BME280;16367;48.736;9.218;2024-01-30T09:14:29;-23395.47;;;7.18;76.79
29385;BME280;16367;48.736;9.218;2024-01-30T09:16:32;-23402.78;;;7.41;75.74
29385;BME280;16367;48.736;9.218;2024-01-30T09:18:35;-23406.09;;;7.51;77.19
29385;BME280;16367;48.736;9.218;2024-01-30T09:20:38;-23392.13;;;7.07;76.90
29385;BME280;16367;48.736;9.218;2024-01-30T09:22:41;-23413.09;;;7.74;75.34
29385;BME280;16367;48.736;9.218;2024-01-30T09:24:44;-23428.66;;;8.23;73.94
29385;BME280;16367;48.736;9.218;2024-01-30T09:26:46;-23436.44;;;8.48;71.74
29385;BME280;16367;48.736;9.218;2024-01-30T09:28:50;-23429.13;;;8.24;71.21
29385;BME280;16367;48.736;9.218;2024-01-30T09:30:53;-23434.22;;;8.41;71.47
29385;BME280;16367;48.736;9.218;2024-01-30T09:32:56;-23431.69;;;8.33;70.73
29385;BME280;16367;48.736;9.218;2024-01-30T09:34:59;-23444.38;;;8.73;69.56
29385;BME280;16367;48.736;9.218;2024-01-30T09:37:03;-23453.72;;;9.02;69.48
29385;BME280;16367;48.736;9.218;2024-01-30T09:39:05;-23447.53;;;8.83;69.37
29385;BME280;16367;48.736;9.218;2024-01-30T09:41:09;-23461.03;;;9.26;67.17
29385;BME280;16367;48.736;9.218;2024-01-30T09:43:16;-23469.13;;;9.51;67.08
29385;BME280;16367;48.736;9.218;2024-01-30T09:45:25;-23483.72;;;9.98;65.95
29385;BME280;16367;48.736;9.218;2024-01-30T09:47:31;-23470.88;;;9.57;65.89
29385;BME280;16367;48.736;9.218;2024-01-30T09:49:34;-23458.97;;;9.19;66.29
29385;BME280;16367;48.736;9.218;2024-01-30T09:51:38;-23444.38;;;8.73;68.29
29385;BME280;16367;48.736;9.218;2024-01-30T09:53:42;-23451.34;;;8.95;68.58
29385;BME280;16367;48.736;9.218;2024-01-30T09:55:45;-23430.41;;;8.29;69.79
29385;BME280;16367;48.736;9.218;2024-01-30T09:57:49;-23437.72;;;8.52;69.81
29385;BME280;16367;48.736;9.218;2024-01-30T09:59:52;-23442.47;;;8.67;68.28
29385;BME280;16367;48.736;9.218;2024-01-30T10:01:57;-23452.00;;;8.97;68.66
29385;BME280;16367;48.736;9.218;2024-01-30T10:04:00;-23439.94;;;8.59;68.76
29385;BME280;16367;48.736;9.218;2024-01-30T10:06:03;-23438.03;;;8.53;69.37
29385;BME280;16367;48.736;9.218;2024-01-30T10:08:07;-23431.34;;;8.32;70.22
29385;BME280;16367;48.736;9.218;2024-01-30T10:10:10;-23432.78;;;8.36;70.51
29385;BME280;16367;48.736;9.218;2024-01-30T10:12:14;-23445.31;;;8.76;70.38
29385;BME280;16367;48.736;9.218;2024-01-30T10:14:17;-23440.25;;;8.60;71.02
29385;BME280;16367;48.736;9.218;2024-01-30T10:16:19;-23452.78;;;8.99;70.16
29385;BME280;16367;48.736;9.218;2024-01-30T10:18:23;-23454.53;;;9.05;70.83
29385;BME280;16367;48.736;9.218;2024-01-30T10:20:26;-23456.59;;;9.12;69.43
29385;BME280;16367;48.736;9.218;2024-01-30T10:22:29;-23462.31;;;9.30;70.38
29385;BME280;16367;48.736;9.218;2024-01-30T10:24:33;-23458.66;;;9.18;70.11
29385;BME280;16367;48.736;9.218;2024-01-30T10:26:38;-23464.38;;;9.36;69.63
29385;BME280;16367;48.736;9.218;2024-01-30T10:28:40;-23469.13;;;9.51;68.41
29385;BME280;16367;48.736;9.218;2024-01-30T10:30:43;-23472.44;;;9.62;68.56
29385;BME280;16367;48.736;9.218;2024-01-30T10:32:46;-23473.88;;;9.66;66.48
29385;BME280;16367;48.736;9.218;2024-01-30T10:34:50;-23479.75;;;9.85;65.90
29385;BME280;16367;48.736;9.218;2024-01-30T10:36:59;-23478.78;;;9.82;65.42
29385;BME280;16367;48.736;9.218;2024-01-30T10:39:02;-23481.16;;;9.90;65.98
29385;BME280;16367;48.736;9.218;2024-01-30T10:41:08;-23483.06;;;9.96;66.30
29385;BME280;16367;48.736;9.218;2024-01-30T10:43:15;-23489.41;;;10.16;65.88
29385;BME280;16367;48.736;9.218;2024-01-30T10:45:20;-23487.84;;;10.11;65.67
29385;BME280;16367;48.736;9.218;2024-01-30T10:47:26;-23489.41;;;10.16;66.49
29385;BME280;16367;48.736;9.218;2024-01-30T10:49:28;-23491.47;;;10.22;66.67